sensor_id;sensor_type;location;lat;lon;timestamp;temperature;humidity
77496;SHT31;66600;48.378;9.948;2023-05-13T00:01:00;9.91;88.15
77496;SHT31;66600;48.378;9.948;2023-05-13T00:03:25;9.95;88.27
77496;SHT31;66600;48.378;9.948;2023-05-13T00:05:51;9.92;88.19
77496;SHT31;66600;48.378;9.948;2023-05-13T00:08:16;9.93;88.12
77496;SHT31;66600;48.378;9.948;2023-05-13T00:10:41;9.96;87.83
77496;SHT31;66600;48.378;9.948;2023-05-13T00:13:07;9.89;87.92
77496;SHT31;66600;48.378;9.948;2023-05-13T00:15:32;9.88;87.88
77496;SHT31;66600;48.378;9.948;2023-05-13T00:17:57;9.85;87.98
77496;SHT31;66600;48.378;9.948;2023-05-13T00:20:23;9.84;87.79
77496;SHT31;66600;48.378;9.948;2023-05-13T00:22:48;9.82;87.87
77496;SHT31;66600;48.378;9.948;2023-05-13T00:25:13;9.81;87.82
77496;SHT31;66600;48.378;9.948;2023-05-13T00:27:39;9.78;87.75
77496;SHT31;66600;48.378;9.948;2023-05-13T00:30:05;9.84;87.79
77496;SHT31;66600;48.378;9.948;2023-05-13T00:32:30;9.81;87.71
77496;SHT31;66600;48.378;9.948;2023-05-13T00:34:56;9.82;87.08
77496;SHT31;66600;48.378;9.948;2023-05-13T00:37:21;9.84;87.24
77496;SHT31;66600;48.378;9.948;2023-05-13T00:39:47;9.84;87.06
77496;SHT31;66600;48.378;9.948;2023-05-13T00:42:12;9.82;86.44
77496;SHT31;66600;48.378;9.948;2023-05-13T00:44:38;9.79;86.79
77496;SHT31;66600;48.378;9.948;2023-05-13T00:47:04;9.79;86.59
77496;SHT31;66600;48.378;9.948;2023-05-13T00:49:32;9.77;86.49
77496;SHT31;66600;48.378;9.948;2023-05-13T00:51:58;9.77;86.57
77496;SHT31;66600;48.378;9.948;2023-05-13T00:54:23;9.77;86.56
77496;SHT31;66600;48.378;9.948;2023-05-13T00:56:49;9.71;86.73
77496;SHT31;66600;48.378;9.948;2023-05-13T00:59:18;9.75;86.86
77496;SHT31;66600;48.378;9.948;2023-05-13T01:01:49;9.74;86.94
77496;SHT31;66600;48.378;9.948;2023-05-13T01:07:10;9.70;87.11
77496;SHT31;66600;48.378;9.948;2023-05-13T01:09:42;9.67;87.32
77496;SHT31;66600;48.378;9.948;2023-05-13T01:12:19;9.68;87.55
77496;SHT31;66600;48.378;9.948;2023-05-13T01:14:53;9.68;87.80
77496;SHT31;66600;48.378;9.948;2023-05-13T01:17:27;9.67;88.10
77496;SHT31;66600;48.378;9.948;2023-05-13T01:19:57;9.61;88.13
77496;SHT31;66600;48.378;9.948;2023-05-13T01:22:24;9.65;88.42
77496;SHT31;66600;48.378;9.948;2023-05-13T01:24:50;9.59;88.42
77496;SHT31;66600;48.378;9.948;2023-05-13T01:27:15;9.58;88.50
77496;SHT31;66600;48.378;9.948;2023-05-13T01:29:41;9.55;88.55
77496;SHT31;66600;48.378;9.948;2023-05-13T01:32:08;9.55;88.86
77496;SHT31;66600;48.378;9.948;2023-05-13T01:34:35;9.52;88.79
77496;SHT31;66600;48.378;9.948;2023-05-13T01:37:02;9.50;88.51
77496;SHT31;66600;48.378;9.948;2023-05-13T01:39:29;9.48;88.69
77496;SHT31;66600;48.378;9.948;2023-05-13T01:41:55;9.48;88.59
77496;SHT31;66600;48.378;9.948;2023-05-13T01:44:21;9.50;88.72
77496;SHT31;66600;48.378;9.948;2023-05-13T01:46:46;9.43;88.40
77496;SHT31;66600;48.378;9.948;2023-05-13T01:49:13;9.47;88.60
77496;SHT31;66600;48.378;9.948;2023-05-13T01:51:38;9.50;88.38
77496;SHT31;66600;48.378;9.948;2023-05-13T01:54:04;9.48;88.41
77496;SHT31;66600;48.378;9.948;2023-05-13T01:56:29;9.50;88.46
77496;SHT31;66600;48.378;9.948;2023-05-13T01:58:55;9.52;88.47
77496;SHT31;66600;48.378;9.948;2023-05-13T02:01:20;9.48;88.60
77496;SHT31;66600;48.378;9.948;2023-05-13T02:03:45;9.47;88.24
77496;SHT31;66600;48.378;9.948;2023-05-13T02:06:11;9.44;88.16
77496;SHT31;66600;48.378;9.948;2023-05-13T02:08:36;9.40;88.34
77496;SHT31;66600;48.378;9.948;2023-05-13T02:11:01;9.41;88.41
77496;SHT31;66600;48.378;9.948;2023-05-13T02:13:27;9.40;88.32
77496;SHT31;66600;48.378;9.948;2023-05-13T02:15:52;9.36;88.19
77496;SHT31;66600;48.378;9.948;2023-05-13T02:18:18;9.33;88.35
77496;SHT31;66600;48.378;9.948;2023-05-13T02:20:44;9.34;88.12
77496;SHT31;66600;48.378;9.948;2023-05-13T02:23:09;9.33;88.08
77496;SHT31;66600;48.378;9.948;2023-05-13T02:25:35;9.33;88.11
77496;SHT31;66600;48.378;9.948;2023-05-13T02:28:00;9.30;88.12
77496;SHT31;66600;48.378;9.948;2023-05-13T02:30:26;9.27;88.31
77496;SHT31;66600;48.378;9.948;2023-05-13T02:32:52;9.30;88.17
77496;SHT31;66600;48.378;9.948;2023-05-13T02:35:17;9.27;88.15
77496;SHT31;66600;48.378;9.948;2023-05-13T02:37:44;9.26;87.87
77496;SHT31;66600;48.378;9.948;2023-05-13T02:40:10;9.22;87.59
77496;SHT31;66600;48.378;9.948;2023-05-13T02:42:35;9.22;87.68
77496;SHT31;66600;48.378;9.948;2023-05-13T02:45:00;9.23;87.74
77496;SHT31;66600;48.378;9.948;2023-05-13T02:47:26;9.22;87.84
77496;SHT31;66600;48.378;9.948;2023-05-13T02:49:52;9.23;87.54
77496;SHT31;66600;48.378;9.948;2023-05-13T02:52:18;9.17;87.70
77496;SHT31;66600;48.378;9.948;2023-05-13T02:54:43;9.20;87.80
77496;SHT31;66600;48.378;9.948;2023-05-13T02:57:08;9.17;87.63
77496;SHT31;66600;48.378;9.948;2023-05-13T02:59:34;9.16;87.54
77496;SHT31;66600;48.378;9.948;2023-05-13T03:01:59;9.19;87.77
77496;SHT31;66600;48.378;9.948;2023-05-13T03:04:24;9.19;87.41
77496;SHT31;66600;48.378;9.948;2023-05-13T03:06:50;9.20;87.52
77496;SHT31;66600;48.378;9.948;2023-05-13T03:09:17;9.19;87.22
77496;SHT31;66600;48.378;9.948;2023-05-13T03:11:58;9.15;87.29
77496;SHT31;66600;48.378;9.948;2023-05-13T03:14:23;9.16;87.25
77496;SHT31;66600;48.378;9.948;2023-05-13T03:16:48;9.10;87.22
77496;SHT31;66600;48.378;9.948;2023-05-13T03:19:14;9.16;87.41
77496;SHT31;66600;48.378;9.948;2023-05-13T03:21:39;9.15;87.39
77496;SHT31;66600;48.378;9.948;2023-05-13T03:24:05;9.13;87.23
77496;SHT31;66600;48.378;9.948;2023-05-13T03:26:30;9.13;87.16
77496;SHT31;66600;48.378;9.948;2023-05-13T03:28:56;9.17;87.05
77496;SHT31;66600;48.378;9.948;2023-05-13T03:31:21;9.13;87.13
77496;SHT31;66600;48.378;9.948;2023-05-13T03:33:47;9.13;87.02
77496;SHT31;66600;48.378;9.948;2023-05-13T03:36:13;9.15;87.20
77496;SHT31;66600;48.378;9.948;2023-05-13T03:38:38;9.13;86.92
77496;SHT31;66600;48.378;9.948;2023-05-13T03:41:04;9.15;86.79
77496;SHT31;66600;48.378;9.948;2023-05-13T03:43:29;9.16;86.71
77496;SHT31;66600;48.378;9.948;2023-05-13T03:45:54;9.10;86.98
77496;SHT31;66600;48.378;9.948;2023-05-13T03:48:20;9.13;86.78
77496;SHT31;66600;48.378;9.948;2023-05-13T03:50:45;9.13;86.78
77496;SHT31;66600;48.378;9.948;2023-05-13T03:53:10;9.17;86.50
77496;SHT31;66600;48.378;9.948;2023-05-13T03:55:36;9.15;86.57
77496;SHT31;66600;48.378;9.948;2023-05-13T03:58:13;9.13;86.51
77496;SHT31;66600;48.378;9.948;2023-05-13T04:00:38;9.13;86.49
77496;SHT31;66600;48.378;9.948;2023-05-13T04:03:04;9.13;86.65
77496;SHT31;66600;48.378;9.948;2023-05-13T04:05:31;9.15;86.41
77496;SHT31;66600;48.378;9.948;2023-05-13T04:07:56;9.16;86.78
77496;SHT31;66600;48.378;9.948;2023-05-13T04:10:21;9.19;86.44
77496;SHT31;66600;48.378;9.948;2023-05-13T04:12:47;9.20;86.59
77496;SHT31;66600;48.378;9.948;2023-05-13T04:15:12;9.17;86.32
77496;SHT31;66600;48.378;9.948;2023-05-13T04:17:37;9.19;86.27
77496;SHT31;66600;48.378;9.948;2023-05-13T04:20:03;9.23;86.49
77496;SHT31;66600;48.378;9.948;2023-05-13T04:22:28;9.26;86.29
77496;SHT31;66600;48.378;9.948;2023-05-13T04:24:53;9.23;86.47
77496;SHT31;66600;48.378;9.948;2023-05-13T04:27:22;9.26;86.47
77496;SHT31;66600;48.378;9.948;2023-05-13T04:29:48;9.26;86.78
77496;SHT31;66600;48.378;9.948;2023-05-13T04:32:13;9.30;86.68
77496;SHT31;66600;48.378;9.948;2023-05-13T04:34:42;9.30;86.44
77496;SHT31;66600;48.378;9.948;2023-05-13T04:37:07;9.38;86.41
77496;SHT31;66600;48.378;9.948;2023-05-13T04:39:32;9.37;86.34
77496;SHT31;66600;48.378;9.948;2023-05-13T04:41:58;9.30;86.39
77496;SHT31;66600;48.378;9.948;2023-05-13T04:44:23;9.36;86.69
77496;SHT31;66600;48.378;9.948;2023-05-13T04:46:48;9.37;86.31
77496;SHT31;66600;48.378;9.948;2023-05-13T04:49:14;9.33;86.73
77496;SHT31;66600;48.378;9.948;2023-05-13T04:51:39;9.38;86.57
77496;SHT31;66600;48.378;9.948;2023-05-13T04:54:04;9.34;86.94
77496;SHT31;66600;48.378;9.948;2023-05-13T04:56:29;9.24;86.95
77496;SHT31;66600;48.378;9.948;2023-05-13T04:58:55;9.19;87.12
77496;SHT31;66600;48.378;9.948;2023-05-13T05:01:20;9.09;87.63
77496;SHT31;66600;48.378;9.948;2023-05-13T05:03:45;9.12;87.61
77496;SHT31;66600;48.378;9.948;2023-05-13T05:06:11;9.15;87.68
77496;SHT31;66600;48.378;9.948;2023-05-13T05:08:36;9.26;87.42
77496;SHT31;66600;48.378;9.948;2023-05-13T05:11:01;9.26;87.34
77496;SHT31;66600;48.378;9.948;2023-05-13T05:13:26;9.27;87.24
77496;SHT31;66600;48.378;9.948;2023-05-13T05:15:52;9.22;87.00
77496;SHT31;66600;48.378;9.948;2023-05-13T05:18:17;9.20;87.55
77496;SHT31;66600;48.378;9.948;2023-05-13T05:20:42;9.22;87.20
77496;SHT31;66600;48.378;9.948;2023-05-13T05:23:07;9.26;87.51
77496;SHT31;66600;48.378;9.948;2023-05-13T05:25:35;9.27;87.51
77496;SHT31;66600;48.378;9.948;2023-05-13T05:28:00;9.16;87.45
77496;SHT31;66600;48.378;9.948;2023-05-13T05:30:29;9.10;87.87
77496;SHT31;66600;48.378;9.948;2023-05-13T05:32:54;9.17;87.45
77496;SHT31;66600;48.378;9.948;2023-05-13T05:35:20;9.23;87.29
77496;SHT31;66600;48.378;9.948;2023-05-13T05:37:45;9.24;87.35
77496;SHT31;66600;48.378;9.948;2023-05-13T05:40:11;9.19;87.66
77496;SHT31;66600;48.378;9.948;2023-05-13T05:42:36;9.28;87.69
77496;SHT31;66600;48.378;9.948;2023-05-13T05:45:02;9.19;87.58
77496;SHT31;66600;48.378;9.948;2023-05-13T05:47:27;9.38;87.44
77496;SHT31;66600;48.378;9.948;2023-05-13T05:49:52;9.28;87.44
77496;SHT31;66600;48.378;9.948;2023-05-13T05:52:18;9.23;87.75
77496;SHT31;66600;48.378;9.948;2023-05-13T05:54:43;9.22;87.85
77496;SHT31;66600;48.378;9.948;2023-05-13T05:57:08;9.23;87.52
77496;SHT31;66600;48.378;9.948;2023-05-13T05:59:34;9.30;87.67
77496;SHT31;66600;48.378;9.948;2023-05-13T06:01:59;9.43;87.27
77496;SHT31;66600;48.378;9.948;2023-05-13T06:04:24;9.37;87.21
77496;SHT31;66600;48.378;9.948;2023-05-13T06:06:49;9.30;87.37
77496;SHT31;66600;48.378;9.948;2023-05-13T06:09:15;9.31;87.39
77496;SHT31;66600;48.378;9.948;2023-05-13T06:11:41;9.34;87.31
77496;SHT31;66600;48.378;9.948;2023-05-13T06:14:06;9.27;87.39
77496;SHT31;66600;48.378;9.948;2023-05-13T06:16:31;9.30;87.17
77496;SHT31;66600;48.378;9.948;2023-05-13T06:18:56;9.22;87.06
77496;SHT31;66600;48.378;9.948;2023-05-13T06:21:22;9.16;87.42
77496;SHT31;66600;48.378;9.948;2023-05-13T06:23:47;9.26;87.30
77496;SHT31;66600;48.378;9.948;2023-05-13T06:26:12;9.41;86.81
77496;SHT31;66600;48.378;9.948;2023-05-13T06:28:38;9.26;86.57
77496;SHT31;66600;48.378;9.948;2023-05-13T06:31:03;9.20;86.61
77496;SHT31;66600;48.378;9.948;2023-05-13T06:33:28;9.26;86.61
77496;SHT31;66600;48.378;9.948;2023-05-13T06:35:54;9.36;86.24
77496;SHT31;66600;48.378;9.948;2023-05-13T06:38:19;9.54;85.82
77496;SHT31;66600;48.378;9.948;2023-05-13T06:40:44;9.64;85.88
77496;SHT31;66600;48.378;9.948;2023-05-13T06:43:10;9.78;85.31
77496;SHT31;66600;48.378;9.948;2023-05-13T06:45:40;9.59;85.74
77496;SHT31;66600;48.378;9.948;2023-05-13T06:48:06;9.84;85.58
77496;SHT31;66600;48.378;9.948;2023-05-13T06:50:31;9.85;85.27
77496;SHT31;66600;48.378;9.948;2023-05-13T06:52:57;10.05;84.74
77496;SHT31;66600;48.378;9.948;2023-05-13T06:55:22;10.10;83.97
77496;SHT31;66600;48.378;9.948;2023-05-13T06:57:48;10.20;84.10
77496;SHT31;66600;48.378;9.948;2023-05-13T07:00:14;9.99;84.16
77496;SHT31;66600;48.378;9.948;2023-05-13T07:02:40;10.03;84.03
77496;SHT31;66600;48.378;9.948;2023-05-13T07:05:07;10.20;84.25
77496;SHT31;66600;48.378;9.948;2023-05-13T07:07:32;10.09;83.86
77496;SHT31;66600;48.378;9.948;2023-05-13T07:09:57;10.32;83.35
77496;SHT31;66600;48.378;9.948;2023-05-13T07:12:23;10.06;84.16
77496;SHT31;66600;48.378;9.948;2023-05-13T07:14:48;10.08;84.49
77496;SHT31;66600;48.378;9.948;2023-05-13T07:17:13;10.29;83.97
77496;SHT31;66600;48.378;9.948;2023-05-13T07:19:39;9.82;85.12
77496;SHT31;66600;48.378;9.948;2023-05-13T07:22:04;9.84;85.48
77496;SHT31;66600;48.378;9.948;2023-05-13T07:24:29;9.86;85.39
77496;SHT31;66600;48.378;9.948;2023-05-13T07:26:54;9.78;85.47
77496;SHT31;66600;48.378;9.948;2023-05-13T07:29:20;9.72;85.95
77496;SHT31;66600;48.378;9.948;2023-05-13T07:31:45;9.72;86.03
77496;SHT31;66600;48.378;9.948;2023-05-13T07:34:10;9.92;85.41
77496;SHT31;66600;48.378;9.948;2023-05-13T07:36:35;9.71;86.02
77496;SHT31;66600;48.378;9.948;2023-05-13T07:39:01;9.89;85.90
77496;SHT31;66600;48.378;9.948;2023-05-13T07:41:26;9.86;85.17
77496;SHT31;66600;48.378;9.948;2023-05-13T07:43:51;9.82;85.17
77496;SHT31;66600;48.378;9.948;2023-05-13T07:46:17;9.85;85.51
77496;SHT31;66600;48.378;9.948;2023-05-13T07:48:42;9.92;85.12
77496;SHT31;66600;48.378;9.948;2023-05-13T07:51:08;9.82;85.10
77496;SHT31;66600;48.378;9.948;2023-05-13T07:53:34;9.78;85.54
77496;SHT31;66600;48.378;9.948;2023-05-13T07:56:01;9.64;85.98
77496;SHT31;66600;48.378;9.948;2023-05-13T07:58:26;9.41;86.26
77496;SHT31;66600;48.378;9.948;2023-05-13T08:00:51;9.44;86.79
77496;SHT31;66600;48.378;9.948;2023-05-13T08:03:17;9.58;86.43
77496;SHT31;66600;48.378;9.948;2023-05-13T08:05:42;9.77;85.89
77496;SHT31;66600;48.378;9.948;2023-05-13T08:08:08;9.86;85.11
77496;SHT31;66600;48.378;9.948;2023-05-13T08:10:33;9.84;85.36
77496;SHT31;66600;48.378;9.948;2023-05-13T08:12:59;10.01;85.25
77496;SHT31;66600;48.378;9.948;2023-05-13T08:15:25;10.19;84.73
77496;SHT31;66600;48.378;9.948;2023-05-13T08:17:51;10.12;84.52
77496;SHT31;66600;48.378;9.948;2023-05-13T08:20:18;10.13;84.27
77496;SHT31;66600;48.378;9.948;2023-05-13T08:22:43;10.10;84.55
77496;SHT31;66600;48.378;9.948;2023-05-13T08:25:08;9.98;84.90
77496;SHT31;66600;48.378;9.948;2023-05-13T08:27:35;10.02;84.60
77496;SHT31;66600;48.378;9.948;2023-05-13T08:30:01;9.89;85.24
77496;SHT31;66600;48.378;9.948;2023-05-13T08:32:26;10.22;84.79
77496;SHT31;66600;48.378;9.948;2023-05-13T08:34:51;10.14;84.19
77496;SHT31;66600;48.378;9.948;2023-05-13T08:37:17;9.99;84.84
77496;SHT31;66600;48.378;9.948;2023-05-13T08:39:42;9.99;85.06
77496;SHT31;66600;48.378;9.948;2023-05-13T08:42:09;9.81;85.39
77496;SHT31;66600;48.378;9.948;2023-05-13T08:44:38;9.92;85.14
77496;SHT31;66600;48.378;9.948;2023-05-13T08:47:15;9.75;85.62
77496;SHT31;66600;48.378;9.948;2023-05-13T08:49:45;9.95;85.52
77496;SHT31;66600;48.378;9.948;2023-05-13T08:52:10;9.98;85.19
77496;SHT31;66600;48.378;9.948;2023-05-13T08:54:37;9.92;85.39
77496;SHT31;66600;48.378;9.948;2023-05-13T08:57:02;9.85;85.63
77496;SHT31;66600;48.378;9.948;2023-05-13T08:59:28;9.85;85.72
77496;SHT31;66600;48.378;9.948;2023-05-13T09:01:53;10.02;85.09
77496;SHT31;66600;48.378;9.948;2023-05-13T09:04:20;10.24;84.65
77496;SHT31;66600;48.378;9.948;2023-05-13T09:06:46;10.29;84.68
77496;SHT31;66600;48.378;9.948;2023-05-13T09:09:12;10.53;83.72
77496;SHT31;66600;48.378;9.948;2023-05-13T09:11:38;10.24;84.54
77496;SHT31;66600;48.378;9.948;2023-05-13T09:14:04;10.29;84.19
77496;SHT31;66600;48.378;9.948;2023-05-13T09:16:31;10.08;84.92
77496;SHT31;66600;48.378;9.948;2023-05-13T09:18:58;10.23;84.92
77496;SHT31;66600;48.378;9.948;2023-05-13T09:21:30;10.50;83.79
77496;SHT31;66600;48.378;9.948;2023-05-13T09:24:07;10.67;83.21
77496;SHT31;66600;48.378;9.948;2023-05-13T09:26:33;10.49;83.12
77496;SHT31;66600;48.378;9.948;2023-05-13T09:29:18;10.58;83.53
77496;SHT31;66600;48.378;9.948;2023-05-13T09:31:45;10.49;83.51
77496;SHT31;66600;48.378;9.948;2023-05-13T09:34:12;10.54;83.89
77496;SHT31;66600;48.378;9.948;2023-05-13T09:36:38;10.58;83.50
77496;SHT31;66600;48.378;9.948;2023-05-13T09:39:04;10.71;83.37
77496;SHT31;66600;48.378;9.948;2023-05-13T09:41:30;10.75;83.23
77496;SHT31;66600;48.378;9.948;2023-05-13T09:43:57;10.75;83.45
77496;SHT31;66600;48.378;9.948;2023-05-13T09:46:23;10.72;83.35
77496;SHT31;66600;48.378;9.948;2023-05-13T09:48:49;10.85;83.03
77496;SHT31;66600;48.378;9.948;2023-05-13T09:51:27;10.89;82.75
77496;SHT31;66600;48.378;9.948;2023-05-13T09:54:01;10.89;82.43
77496;SHT31;66600;48.378;9.948;2023-05-13T09:56:27;10.84;82.57
77496;SHT31;66600;48.378;9.948;2023-05-13T09:58:55;10.65;83.45
77496;SHT31;66600;48.378;9.948;2023-05-13T10:01:20;10.49;83.43
77496;SHT31;66600;48.378;9.948;2023-05-13T10:03:46;10.44;84.15
77496;SHT31;66600;48.378;9.948;2023-05-13T10:06:15;10.58;84.11
77496;SHT31;66600;48.378;9.948;2023-05-13T10:08:44;10.36;83.96
77496;SHT31;66600;48.378;9.948;2023-05-13T10:11:11;10.37;84.30
77496;SHT31;66600;48.378;9.948;2023-05-13T10:13:39;10.28;84.99
77496;SHT31;66600;48.378;9.948;2023-05-13T10:16:06;10.43;84.82
77496;SHT31;66600;48.378;9.948;2023-05-13T10:18:32;10.50;84.37
77496;SHT31;66600;48.378;9.948;2023-05-13T10:20:58;10.49;84.19
77496;SHT31;66600;48.378;9.948;2023-05-13T10:23:23;10.37;84.74
77496;SHT31;66600;48.378;9.948;2023-05-13T10:25:53;10.33;85.01
77496;SHT31;66600;48.378;9.948;2023-05-13T10:28:19;10.28;84.73
77496;SHT31;66600;48.378;9.948;2023-05-13T10:30:44;10.54;84.79
77496;SHT31;66600;48.378;9.948;2023-05-13T10:33:10;10.41;84.13
77496;SHT31;66600;48.378;9.948;2023-05-13T10:35:37;10.60;84.13
77496;SHT31;66600;48.378;9.948;2023-05-13T10:38:31;10.78;83.44
77496;SHT31;66600;48.378;9.948;2023-05-13T10:41:08;10.58;83.86
77496;SHT31;66600;48.378;9.948;2023-05-13T10:43:34;10.29;84.42
77496;SHT31;66600;48.378;9.948;2023-05-13T10:46:05;10.30;84.90
77496;SHT31;66600;48.378;9.948;2023-05-13T10:48:59;10.09;85.55
77496;SHT31;66600;48.378;9.948;2023-05-13T10:51:25;10.05;85.90
77496;SHT31;66600;48.378;9.948;2023-05-13T10:53:55;10.16;85.76
77496;SHT31;66600;48.378;9.948;2023-05-13T10:56:23;10.10;85.52
77496;SHT31;66600;48.378;9.948;2023-05-13T11:01:34;10.40;84.44
77496;SHT31;66600;48.378;9.948;2023-05-13T11:04:01;10.61;83.76
77496;SHT31;66600;48.378;9.948;2023-05-13T11:06:34;10.50;84.13
77496;SHT31;66600;48.378;9.948;2023-05-13T11:09:04;10.40;84.70
77496;SHT31;66600;48.378;9.948;2023-05-13T11:11:31;10.65;84.07
77496;SHT31;66600;48.378;9.948;2023-05-13T11:14:07;10.82;83.96
77496;SHT31;66600;48.378;9.948;2023-05-13T11:16:36;10.87;83.98
77496;SHT31;66600;48.378;9.948;2023-05-13T11:19:11;10.75;83.77
77496;SHT31;66600;48.378;9.948;2023-05-13T11:21:48;10.84;83.88
77496;SHT31;66600;48.378;9.948;2023-05-13T11:24:16;10.91;83.47
77496;SHT31;66600;48.378;9.948;2023-05-13T11:26:53;10.95;83.61
77496;SHT31;66600;48.378;9.948;2023-05-13T11:29:35;10.71;83.61
77496;SHT31;66600;48.378;9.948;2023-05-13T11:32:03;10.68;84.17
77496;SHT31;66600;48.378;9.948;2023-05-13T11:34:30;10.63;84.38
77496;SHT31;66600;48.378;9.948;2023-05-13T11:37:09;10.74;83.69
77496;SHT31;66600;48.378;9.948;2023-05-13T11:39:37;11.04;82.77
77496;SHT31;66600;48.378;9.948;2023-05-13T11:42:06;11.54;81.69
77496;SHT31;66600;48.378;9.948;2023-05-13T11:44:33;11.88;79.62
77496;SHT31;66600;48.378;9.948;2023-05-13T11:47:04;12.04;78.74
77496;SHT31;66600;48.378;9.948;2023-05-13T11:52:08;12.01;78.22
77496;SHT31;66600;48.378;9.948;2023-05-13T11:54:51;11.57;80.22
77496;SHT31;66600;48.378;9.948;2023-05-13T11:57:25;11.50;80.79
77496;SHT31;66600;48.378;9.948;2023-05-13T11:59:58;11.61;80.53
77496;SHT31;66600;48.378;9.948;2023-05-13T12:02:31;11.85;80.54
77496;SHT31;66600;48.378;9.948;2023-05-13T12:05:03;11.70;80.88
77496;SHT31;66600;48.378;9.948;2023-05-13T12:07:29;11.71;80.57
77496;SHT31;66600;48.378;9.948;2023-05-13T12:09:57;11.75;80.83
77496;SHT31;66600;48.378;9.948;2023-05-13T12:12:22;11.71;80.97
77496;SHT31;66600;48.378;9.948;2023-05-13T12:14:48;11.75;81.00
77496;SHT31;66600;48.378;9.948;2023-05-13T12:17:15;11.61;81.17
77496;SHT31;66600;48.378;9.948;2023-05-13T12:20:06;11.29;81.46
77496;SHT31;66600;48.378;9.948;2023-05-13T12:22:33;11.18;81.44
77496;SHT31;66600;48.378;9.948;2023-05-13T12:24:58;11.11;82.10
77496;SHT31;66600;48.378;9.948;2023-05-13T12:27:26;11.43;81.53
77496;SHT31;66600;48.378;9.948;2023-05-13T12:29:55;11.53;81.05
77496;SHT31;66600;48.378;9.948;2023-05-13T12:32:23;11.63;80.88
77496;SHT31;66600;48.378;9.948;2023-05-13T12:34:49;11.60;80.90
77496;SHT31;66600;48.378;9.948;2023-05-13T12:37:15;11.44;80.81
77496;SHT31;66600;48.378;9.948;2023-05-13T12:39:41;11.64;80.55
77496;SHT31;66600;48.378;9.948;2023-05-13T12:42:16;11.37;81.37
77496;SHT31;66600;48.378;9.948;2023-05-13T12:44:44;11.46;81.11
77496;SHT31;66600;48.378;9.948;2023-05-13T12:47:10;11.56;80.53
77496;SHT31;66600;48.378;9.948;2023-05-13T12:50:12;11.43;80.90
77496;SHT31;66600;48.378;9.948;2023-05-13T12:52:40;11.47;80.99
77496;SHT31;66600;48.378;9.948;2023-05-13T12:55:05;11.46;81.14
77496;SHT31;66600;48.378;9.948;2023-05-13T12:57:31;11.34;81.33
77496;SHT31;66600;48.378;9.948;2023-05-13T12:59:56;11.29;81.54
77496;SHT31;66600;48.378;9.948;2023-05-13T13:02:22;11.26;82.07
77496;SHT31;66600;48.378;9.948;2023-05-13T13:04:47;11.50;81.03
77496;SHT31;66600;48.378;9.948;2023-05-13T13:07:12;11.43;80.77
77496;SHT31;66600;48.378;9.948;2023-05-13T13:09:38;11.47;81.12
77496;SHT31;66600;48.378;9.948;2023-05-13T13:12:04;11.61;80.23
77496;SHT31;66600;48.378;9.948;2023-05-13T13:14:29;11.64;80.18
77496;SHT31;66600;48.378;9.948;2023-05-13T13:16:55;11.78;79.83
77496;SHT31;66600;48.378;9.948;2023-05-13T13:19:20;11.78;79.91
77496;SHT31;66600;48.378;9.948;2023-05-13T13:21:46;11.74;79.89
77496;SHT31;66600;48.378;9.948;2023-05-13T13:24:11;11.67;80.54
77496;SHT31;66600;48.378;9.948;2023-05-13T13:26:36;12.04;79.89
77496;SHT31;66600;48.378;9.948;2023-05-13T13:29:02;12.16;79.12
77496;SHT31;66600;48.378;9.948;2023-05-13T13:31:27;12.12;79.43
77496;SHT31;66600;48.378;9.948;2023-05-13T13:33:52;12.52;78.39
77496;SHT31;66600;48.378;9.948;2023-05-13T13:36:18;12.73;77.81
77496;SHT31;66600;48.378;9.948;2023-05-13T13:38:43;12.49;78.89
77496;SHT31;66600;48.378;9.948;2023-05-13T13:41:09;12.24;78.26
77496;SHT31;66600;48.378;9.948;2023-05-13T13:43:34;12.60;77.50
77496;SHT31;66600;48.378;9.948;2023-05-13T13:45:59;13.02;77.32
77496;SHT31;66600;48.378;9.948;2023-05-13T13:48:24;12.61;76.76
77496;SHT31;66600;48.378;9.948;2023-05-13T13:50:50;12.53;77.20
77496;SHT31;66600;48.378;9.948;2023-05-13T13:53:16;13.05;76.02
77496;SHT31;66600;48.378;9.948;2023-05-13T13:55:42;13.22;75.45
77496;SHT31;66600;48.378;9.948;2023-05-13T13:58:07;12.50;77.11
77496;SHT31;66600;48.378;9.948;2023-05-13T14:00:32;12.29;78.04
77496;SHT31;66600;48.378;9.948;2023-05-13T14:02:57;11.97;79.10
77496;SHT31;66600;48.378;9.948;2023-05-13T14:05:23;11.99;79.43
77496;SHT31;66600;48.378;9.948;2023-05-13T14:07:48;12.30;79.09
77496;SHT31;66600;48.378;9.948;2023-05-13T14:10:18;12.72;78.01
77496;SHT31;66600;48.378;9.948;2023-05-13T14:12:43;12.67;77.04
77496;SHT31;66600;48.378;9.948;2023-05-13T14:15:08;13.12;75.66
77496;SHT31;66600;48.378;9.948;2023-05-13T14:17:34;13.19;75.39
77496;SHT31;66600;48.378;9.948;2023-05-13T14:19:59;13.55;75.23
77496;SHT31;66600;48.378;9.948;2023-05-13T14:22:25;13.49;74.75
77496;SHT31;66600;48.378;9.948;2023-05-13T14:24:51;12.87;76.66
77496;SHT31;66600;48.378;9.948;2023-05-13T14:27:16;12.94;76.88
77496;SHT31;66600;48.378;9.948;2023-05-13T14:29:42;12.25;78.37
77496;SHT31;66600;48.378;9.948;2023-05-13T14:32:07;12.28;79.50
77496;SHT31;66600;48.378;9.948;2023-05-13T14:34:33;12.35;79.21
77496;SHT31;66600;48.378;9.948;2023-05-13T14:36:58;12.33;78.78
77496;SHT31;66600;48.378;9.948;2023-05-13T14:39:24;12.43;79.28
77496;SHT31;66600;48.378;9.948;2023-05-13T14:41:49;12.46;79.53
77496;SHT31;66600;48.378;9.948;2023-05-13T14:44:14;12.47;78.93
77496;SHT31;66600;48.378;9.948;2023-05-13T14:46:40;12.30;79.29
77496;SHT31;66600;48.378;9.948;2023-05-13T14:49:06;12.30;79.68
77496;SHT31;66600;48.378;9.948;2023-05-13T14:51:32;12.36;79.62
77496;SHT31;66600;48.378;9.948;2023-05-13T14:53:58;12.37;79.45
77496;SHT31;66600;48.378;9.948;2023-05-13T14:56:23;12.37;79.71
77496;SHT31;66600;48.378;9.948;2023-05-13T14:58:50;12.37;79.65
77496;SHT31;66600;48.378;9.948;2023-05-13T15:01:16;12.40;79.59
77496;SHT31;66600;48.378;9.948;2023-05-13T15:03:41;12.42;79.52
77496;SHT31;66600;48.378;9.948;2023-05-13T15:06:06;12.49;79.22
77496;SHT31;66600;48.378;9.948;2023-05-13T15:08:32;12.28;78.98
77496;SHT31;66600;48.378;9.948;2023-05-13T15:10:58;12.09;79.05
77496;SHT31;66600;48.378;9.948;2023-05-13T15:13:23;12.16;79.71
77496;SHT31;66600;48.378;9.948;2023-05-13T15:15:51;12.08;79.72
77496;SHT31;66600;48.378;9.948;2023-05-13T15:18:16;12.06;79.95
77496;SHT31;66600;48.378;9.948;2023-05-13T15:20:41;12.19;79.99
77496;SHT31;66600;48.378;9.948;2023-05-13T15:23:09;12.06;80.22
77496;SHT31;66600;48.378;9.948;2023-05-13T15:25:34;12.06;80.02
77496;SHT31;66600;48.378;9.948;2023-05-13T15:28:00;12.14;80.23
77496;SHT31;66600;48.378;9.948;2023-05-13T15:30:25;12.16;80.37
77496;SHT31;66600;48.378;9.948;2023-05-13T15:32:50;12.05;80.24
77496;SHT31;66600;48.378;9.948;2023-05-13T15:35:16;12.16;80.43
77496;SHT31;66600;48.378;9.948;2023-05-13T15:37:41;12.22;80.33
77496;SHT31;66600;48.378;9.948;2023-05-13T15:40:07;12.25;80.28
77496;SHT31;66600;48.378;9.948;2023-05-13T15:42:32;12.24;79.92
77496;SHT31;66600;48.378;9.948;2023-05-13T15:44:58;12.12;80.36